createdAt,value
2022-10-23T00:00:54.666Z,1014.55
2022-10-23T00:01:48.081Z,1014.53
2022-10-23T00:02:48.258Z,1014.54
2022-10-23T00:03:48.320Z,1014.50
2022-10-23T00:04:48.404Z,1014.48
2022-10-23T00:05:48.531Z,1014.45
2022-10-23T00:06:48.736Z,1014.44
2022-10-23T00:07:48.782Z,1014.46
2022-10-23T00:08:48.904Z,1014.41
2022-10-23T00:09:49.013Z,1014.40
2022-10-23T00:10:49.136Z,1014.38
2022-10-23T00:11:49.284Z,1014.40
2022-10-23T00:12:49.377Z,1014.42
2022-10-23T00:13:49.500Z,1014.43
2022-10-23T00:14:49.611Z,1014.41
2022-10-23T00:15:49.723Z,1014.42
2022-10-23T00:16:49.863Z,1014.42
2022-10-23T00:17:49.951Z,1014.43
2022-10-23T00:18:50.086Z,1014.42
2022-10-23T00:19:50.215Z,1014.42
2022-10-23T00:20:50.303Z,1014.45
2022-10-23T00:21:50.420Z,1014.47
2022-10-23T00:22:50.550Z,1014.46
2022-10-23T00:23:50.832Z,1014.42
2022-10-23T00:24:50.800Z,1014.44
2022-10-23T00:25:50.936Z,1014.49
2022-10-23T00:26:51.066Z,1014.49
2022-10-23T00:27:51.188Z,1014.51
2022-10-23T00:28:51.353Z,1014.52
2022-10-23T00:29:51.438Z,1014.55
2022-10-23T00:30:51.570Z,1014.51
2022-10-23T00:31:51.731Z,1014.50
2022-10-23T00:32:51.812Z,1014.52
2022-10-23T00:33:51.993Z,1014.48
2022-10-23T00:34:52.099Z,1014.48
2022-10-23T00:35:52.192Z,1014.47
2022-10-23T00:36:52.323Z,1014.45
2022-10-23T00:37:52.471Z,1014.44
2022-10-23T00:38:52.598Z,1014.41
2022-10-23T00:39:52.770Z,1014.41
2022-10-23T00:40:52.869Z,1014.40
2022-10-23T00:41:53.005Z,1014.39
2022-10-23T00:42:53.128Z,1014.44
2022-10-23T00:43:53.267Z,1014.40
2022-10-23T00:44:53.435Z,1014.43
2022-10-23T00:45:53.542Z,1014.46
2022-10-23T00:46:53.672Z,1014.46
2022-10-23T00:47:53.810Z,1014.43
2022-10-23T00:48:53.942Z,1014.48
2022-10-23T00:49:54.113Z,1014.48
2022-10-23T00:50:54.192Z,1014.47
2022-10-23T00:51:54.346Z,1014.46
2022-10-23T00:52:54.453Z,1014.47
2022-10-23T00:54:01.358Z,1014.45
2022-10-23T00:54:54.715Z,1014.45
2022-10-23T00:55:54.876Z,1014.45
2022-10-23T00:56:54.975Z,1014.42
2022-10-23T00:57:55.126Z,1014.36
2022-10-23T00:58:55.213Z,1014.40
2022-10-23T00:59:55.332Z,1014.37
2022-10-23T01:00:55.702Z,1014.33
2022-10-23T01:01:55.748Z,1014.34
2022-10-23T01:02:55.764Z,1014.35
2022-10-23T01:03:55.876Z,1014.35
2022-10-23T01:04:56.032Z,1014.35
2022-10-23T01:05:56.209Z,1014.36
2022-10-23T01:06:56.459Z,1014.33
2022-10-23T01:07:56.497Z,1014.31
2022-10-23T01:08:56.659Z,1014.33
2022-10-23T01:09:56.806Z,1014.33
2022-10-23T01:10:56.959Z,1014.29
2022-10-23T01:11:57.155Z,1014.26
2022-10-23T01:12:57.300Z,1014.28
2022-10-23T01:13:57.497Z,1014.27
2022-10-23T01:14:57.609Z,1014.27
2022-10-23T01:15:57.763Z,1014.29
2022-10-23T01:16:57.935Z,1014.26
2022-10-23T01:17:58.062Z,1014.29
2022-10-23T01:18:58.161Z,1014.33
2022-10-23T01:19:58.322Z,1014.30
2022-10-23T01:20:58.413Z,1014.26
2022-10-23T01:21:58.557Z,1014.29
2022-10-23T01:22:58.819Z,1014.26
2022-10-23T01:23:58.787Z,1014.28
2022-10-23T01:24:58.914Z,1014.24
2022-10-23T01:25:59.028Z,1014.23
2022-10-23T01:26:59.162Z,1014.24
2022-10-23T01:27:59.334Z,1014.24
2022-10-23T01:28:59.488Z,1014.21
2022-10-23T01:29:59.613Z,1014.26
2022-10-23T01:30:59.761Z,1014.21
2022-10-23T01:31:59.923Z,1014.19
2022-10-23T01:33:00.067Z,1014.19
2022-10-23T01:34:00.270Z,1014.19
2022-10-23T01:35:00.372Z,1014.19
2022-10-23T01:36:00.522Z,1014.20
2022-10-23T01:37:00.679Z,1014.17
2022-10-23T01:38:00.885Z,1014.18
2022-10-23T01:39:01.085Z,1014.16
2022-10-23T01:40:01.105Z,1014.19
2022-10-23T01:41:01.258Z,1014.23
2022-10-23T01:42:01.406Z,1014.22
2022-10-23T01:43:01.584Z,1014.26
2022-10-23T01:44:01.693Z,1014.25
2022-10-23T01:45:01.839Z,1014.23
2022-10-23T01:46:01.991Z,1014.27
2022-10-23T01:47:02.129Z,1014.27
2022-10-23T01:48:02.374Z,1014.24
2022-10-23T01:49:02.440Z,1014.24
2022-10-23T01:50:02.561Z,1014.20
2022-10-23T01:51:02.697Z,1014.22
2022-10-23T01:52:02.838Z,1014.22
2022-10-23T01:53:03.013Z,1014.21
2022-10-23T01:54:03.160Z,1014.17
2022-10-23T01:55:03.278Z,1014.21
2022-10-23T01:56:03.689Z,1014.22
2022-10-23T01:57:03.591Z,1014.24
2022-10-23T01:58:03.744Z,1014.21
2022-10-23T01:59:03.983Z,1014.21
2022-10-23T02:00:04.049Z,1014.17
2022-10-23T02:01:04.283Z,1014.16
2022-10-23T02:02:04.508Z,1014.18
2022-10-23T02:03:04.476Z,1014.20
2022-10-23T02:04:04.627Z,1014.24
2022-10-23T02:05:04.711Z,1014.21
2022-10-23T02:06:04.838Z,1014.23
2022-10-23T02:07:04.962Z,1014.20
2022-10-23T02:08:05.107Z,1014.22
2022-10-23T02:09:05.264Z,1014.20
2022-10-23T02:10:05.334Z,1014.18
2022-10-23T02:11:05.489Z,1014.19
2022-10-23T02:12:05.600Z,1014.16
2022-10-23T02:13:05.721Z,1014.17
2022-10-23T02:14:05.841Z,1014.21
2022-10-23T02:15:06.040Z,1014.18
2022-10-23T02:16:06.095Z,1014.20
2022-10-23T02:17:06.209Z,1014.22
2022-10-23T02:18:06.322Z,1014.22
2022-10-23T02:19:06.646Z,1014.21
2022-10-23T02:20:06.612Z,1014.17
2022-10-23T02:21:06.784Z,1014.21
2022-10-23T02:22:06.865Z,1014.23
2022-10-23T02:23:06.988Z,1014.18
2022-10-23T02:24:07.156Z,1014.20
2022-10-23T02:25:07.260Z,1014.18
2022-10-23T02:26:07.554Z,1014.18
2022-10-23T02:27:07.529Z,1014.17
2022-10-23T02:28:07.666Z,1014.14
2022-10-23T02:29:07.812Z,1014.16
2022-10-23T02:30:07.940Z,1014.19
2022-10-23T02:31:08.106Z,1014.16
2022-10-23T02:32:08.266Z,1014.22
2022-10-23T02:33:08.356Z,1014.22
2022-10-23T02:34:08.487Z,1014.23
2022-10-23T02:35:08.630Z,1014.20
2022-10-23T02:36:08.767Z,1014.20
2022-10-23T02:37:09.087Z,1014.18
2022-10-23T02:38:09.047Z,1014.18
2022-10-23T02:39:09.235Z,1014.18
2022-10-23T02:40:09.339Z,1014.22
2022-10-23T02:41:09.476Z,1014.21
2022-10-23T02:42:09.634Z,1014.19
2022-10-23T02:43:09.742Z,1014.18
2022-10-23T02:44:09.877Z,1014.15
2022-10-23T02:45:10.026Z,1014.17
2022-10-23T02:46:10.193Z,1014.13
2022-10-23T02:47:10.400Z,1014.13
2022-10-23T02:48:10.524Z,1014.11
2022-10-23T02:49:10.784Z,1014.07
2022-10-23T02:50:10.854Z,1014.09
2022-10-23T02:51:11.035Z,1014.10
2022-10-23T02:52:11.202Z,1014.05
2022-10-23T02:53:11.349Z,1014.02
2022-10-23T02:54:11.661Z,1013.98
2022-10-23T02:55:11.652Z,1014.02
2022-10-23T02:56:11.816Z,1014.04
2022-10-23T02:57:11.993Z,1014.01
2022-10-23T02:58:12.157Z,1014.01
2022-10-23T02:59:12.354Z,1014.05
2022-10-23T03:00:12.481Z,1014.05
2022-10-23T03:01:12.794Z,1014.12
2022-10-23T03:02:12.951Z,1014.12
2022-10-23T03:03:12.928Z,1014.13
2022-10-23T03:04:13.126Z,1014.07
2022-10-23T03:05:13.239Z,1014.07
2022-10-23T03:06:13.397Z,1014.12
2022-10-23T03:07:13.559Z,1014.07
2022-10-23T03:08:13.726Z,1014.04
2022-10-23T03:09:13.940Z,1014.05
2022-10-23T03:10:14.047Z,1014.08
2022-10-23T03:11:14.222Z,1014.03
2022-10-23T03:12:14.347Z,1014.02
2022-10-23T03:13:14.484Z,1014.03
2022-10-23T03:14:14.622Z,1014.02
2022-10-23T03:15:14.793Z,1013.98
2022-10-23T03:16:14.912Z,1013.99
2022-10-23T03:17:15.076Z,1013.92
2022-10-23T03:18:15.190Z,1013.91
2022-10-23T03:19:15.335Z,1013.91
2022-10-23T03:20:15.472Z,1013.86
2022-10-23T03:21:15.605Z,1013.87
2022-10-23T03:22:15.777Z,1013.86
2022-10-23T03:23:15.877Z,1013.84
2022-10-23T03:24:16.014Z,1013.84
2022-10-23T03:25:16.185Z,1013.79
2022-10-23T03:26:16.298Z,1013.78
2022-10-23T03:27:16.610Z,1013.77
2022-10-23T03:28:16.601Z,1013.78
2022-10-23T03:29:16.781Z,1013.80
2022-10-23T03:30:16.893Z,1013.80
2022-10-23T03:31:17.037Z,1013.80
2022-10-23T03:32:17.197Z,1013.83
2022-10-23T03:33:17.433Z,1013.88
2022-10-23T03:34:17.457Z,1013.89
2022-10-23T03:35:17.586Z,1013.88
2022-10-23T03:36:17.716Z,1013.90
2022-10-23T03:37:17.859Z,1013.87
2022-10-23T03:38:18.025Z,1013.86
2022-10-23T03:39:18.157Z,1013.84
2022-10-23T03:40:18.263Z,1013.82
2022-10-23T03:41:18.428Z,1013.81
2022-10-23T03:42:18.544Z,1013.81
2022-10-23T03:43:18.746Z,1013.80
2022-10-23T03:44:18.810Z,1013.77
2022-10-23T03:45:18.950Z,1013.78
2022-10-23T03:46:19.083Z,1013.82
2022-10-23T03:47:19.214Z,1013.80
2022-10-23T03:48:19.383Z,1013.83
2022-10-23T03:49:19.605Z,1013.83
2022-10-23T03:50:19.604Z,1013.81
2022-10-23T03:51:19.745Z,1013.77
2022-10-23T03:52:19.947Z,1013.82
2022-10-23T03:53:20.018Z,1013.82
2022-10-23T03:54:20.226Z,1013.81
2022-10-23T03:55:20.301Z,1013.78
2022-10-23T03:56:20.442Z,1013.82
2022-10-23T03:57:20.606Z,1013.81
2022-10-23T03:58:20.731Z,1013.81
2022-10-23T03:59:20.911Z,1013.85
2022-10-23T04:00:21.075Z,1013.79
2022-10-23T04:01:21.342Z,1013.76
2022-10-23T04:02:21.544Z,1013.73
2022-10-23T04:03:21.567Z,1013.75
2022-10-23T04:04:21.733Z,1013.65
2022-10-23T04:05:21.910Z,1013.65
2022-10-23T04:06:22.173Z,1013.65
2022-10-23T04:07:22.259Z,1013.62
2022-10-23T04:08:22.426Z,1013.65
2022-10-23T04:09:22.588Z,1013.63
2022-10-23T04:10:22.737Z,1013.61
2022-10-23T04:11:22.909Z,1013.62
2022-10-23T04:12:23.093Z,1013.62
2022-10-23T04:13:23.197Z,1013.61
2022-10-23T04:14:23.371Z,1013.62
2022-10-23T04:15:23.574Z,1013.60
2022-10-23T04:16:23.750Z,1013.62
2022-10-23T04:17:23.932Z,1013.61
2022-10-23T04:18:24.033Z,1013.62
2022-10-23T04:19:24.212Z,1013.63
2022-10-23T04:20:24.394Z,1013.64
2022-10-23T04:21:24.743Z,1013.62
2022-10-23T04:22:27.507Z,1013.59
2022-10-23T04:23:24.919Z,1013.62
2022-10-23T04:24:25.091Z,1013.59
2022-10-23T04:25:25.263Z,1013.57
2022-10-23T04:26:25.591Z,1013.56
2022-10-23T04:27:25.618Z,1013.56
2022-10-23T04:28:25.740Z,1013.56
2022-10-23T04:29:25.896Z,1013.56
2022-10-23T04:30:26.050Z,1013.60
2022-10-23T04:31:26.242Z,1013.58
2022-10-23T04:32:26.400Z,1013.59
2022-10-23T04:33:26.519Z,1013.59
2022-10-23T04:34:26.671Z,1013.58
2022-10-23T04:35:26.857Z,1013.58
2022-10-23T04:36:26.985Z,1013.61
2022-10-23T04:37:27.144Z,1013.62
2022-10-23T04:38:27.329Z,1013.61
2022-10-23T04:39:27.454Z,1013.65
2022-10-23T04:40:27.604Z,1013.64
2022-10-23T04:41:27.758Z,1013.64
2022-10-23T04:43:28.087Z,1013.60
2022-10-23T04:44:28.250Z,1013.66
2022-10-23T04:45:28.416Z,1013.65
2022-10-23T04:46:28.563Z,1013.64
2022-10-23T04:47:28.745Z,1013.62
2022-10-23T04:48:29.297Z,1013.64
2022-10-23T04:49:29.058Z,1013.63
2022-10-23T04:50:29.194Z,1013.64
2022-10-23T04:51:29.333Z,1013.64
2022-10-23T04:52:29.495Z,1013.66
2022-10-23T04:53:29.645Z,1013.60
2022-10-23T04:54:29.830Z,1013.59
2022-10-23T04:55:29.946Z,1013.58
2022-10-23T04:56:30.106Z,1013.58
2022-10-23T04:57:30.286Z,1013.51
2022-10-23T04:58:30.418Z,1013.52
2022-10-23T04:59:30.601Z,1013.51
2022-10-23T05:00:30.776Z,1013.52
2022-10-23T05:01:31.031Z,1013.54
2022-10-23T05:02:31.019Z,1013.55
2022-10-23T05:03:31.162Z,1013.56
2022-10-23T05:04:31.317Z,1013.55
2022-10-23T05:05:31.482Z,1013.52
2022-10-23T05:06:31.671Z,1013.49
2022-10-23T05:07:31.797Z,1013.50
2022-10-23T05:08:31.966Z,1013.48
2022-10-23T05:09:32.138Z,1013.45
2022-10-23T05:10:32.297Z,1013.44
2022-10-23T05:11:32.556Z,1013.40
2022-10-23T05:12:32.633Z,1013.38
2022-10-23T05:13:32.815Z,1013.39
2022-10-23T05:14:32.951Z,1013.34
2022-10-23T05:15:33.244Z,1013.37
2022-10-23T05:16:33.294Z,1013.37
2022-10-23T05:17:33.429Z,1013.34
2022-10-23T05:18:33.583Z,1013.32
2022-10-23T05:19:33.777Z,1013.31
2022-10-23T05:20:33.891Z,1013.30
2022-10-23T05:21:34.040Z,1013.30
2022-10-23T05:22:34.193Z,1013.25
2022-10-23T05:23:34.342Z,1013.28
2022-10-23T05:24:34.537Z,1013.26
2022-10-23T05:25:34.639Z,1013.26
2022-10-23T05:26:34.778Z,1013.28
2022-10-23T05:27:34.929Z,1013.29
2022-10-23T05:28:35.090Z,1013.32
2022-10-23T05:29:35.289Z,1013.30
2022-10-23T05:30:35.382Z,1013.29
2022-10-23T05:31:35.538Z,1013.27
2022-10-23T05:32:35.693Z,1013.29
2022-10-23T05:33:35.860Z,1013.29
2022-10-23T05:34:36.049Z,1013.29
2022-10-23T05:35:36.170Z,1013.25
2022-10-23T05:36:36.327Z,1013.27
2022-10-23T05:37:36.490Z,1013.24
2022-10-23T05:38:36.650Z,1013.25
2022-10-23T05:39:36.947Z,1013.26
2022-10-23T05:40:36.961Z,1013.30
2022-10-23T05:41:37.110Z,1013.31
2022-10-23T05:42:39.569Z,1013.33
2022-10-23T05:43:37.396Z,1013.34
2022-10-23T05:44:37.589Z,1013.36
2022-10-23T05:45:37.715Z,1013.36
2022-10-23T05:46:37.866Z,1013.39
2022-10-23T05:47:37.978Z,1013.41
2022-10-23T05:48:38.119Z,1013.48
2022-10-23T05:49:38.267Z,1013.43
2022-10-23T05:50:38.457Z,1013.31
2022-10-23T05:51:38.574Z,1013.30
2022-10-23T05:52:38.733Z,1013.35
2022-10-23T05:53:41.756Z,1013.32
2022-10-23T05:54:39.042Z,1013.36
2022-10-23T05:55:39.252Z,1013.31
2022-10-23T05:56:39.331Z,1013.32
2022-10-23T05:57:39.637Z,1013.24
2022-10-23T05:58:39.622Z,1013.27
2022-10-23T05:59:39.800Z,1013.31
2022-10-23T06:00:39.963Z,1013.30
2022-10-23T06:01:40.234Z,1013.29
2022-10-23T06:02:40.282Z,1013.31
2022-10-23T06:03:40.341Z,1013.33
2022-10-23T06:04:40.479Z,1013.38
2022-10-23T06:05:40.762Z,1013.34
2022-10-23T06:06:40.770Z,1013.35
2022-10-23T06:07:41.087Z,1013.33
2022-10-23T06:08:41.051Z,1013.36
2022-10-23T06:09:41.199Z,1013.32
2022-10-23T06:10:41.365Z,1013.25
2022-10-23T06:11:41.472Z,1013.25
2022-10-23T06:12:41.638Z,1013.23
2022-10-23T06:13:41.758Z,1013.17
2022-10-23T06:14:41.942Z,1013.18
2022-10-23T06:15:42.115Z,1013.13
2022-10-23T06:16:42.249Z,1013.10
2022-10-23T06:17:42.720Z,1013.07
2022-10-23T06:18:42.572Z,1013.09
2022-10-23T06:19:42.751Z,1013.08
2022-10-23T06:20:42.910Z,1013.07
2022-10-23T06:21:43.078Z,1013.15
2022-10-23T06:22:43.460Z,1013.18
2022-10-23T06:23:43.361Z,1013.15
2022-10-23T06:24:43.524Z,1013.13
2022-10-23T06:25:43.676Z,1013.15
2022-10-23T06:26:43.810Z,1013.15
2022-10-23T06:27:43.915Z,1013.14
2022-10-23T06:28:44.253Z,1013.17
2022-10-23T06:29:44.225Z,1013.20
2022-10-23T06:30:44.406Z,1013.13
2022-10-23T06:31:44.533Z,1013.13
2022-10-23T06:32:45.143Z,1013.18
2022-10-23T06:33:44.870Z,1013.22
2022-10-23T06:34:44.983Z,1013.20
2022-10-23T06:35:45.123Z,1013.17
2022-10-23T06:36:45.268Z,1013.13
2022-10-23T06:37:45.542Z,1013.10
2022-10-23T06:38:45.566Z,1013.11
2022-10-23T06:39:45.727Z,1013.09
2022-10-23T06:40:45.870Z,1013.07
2022-10-23T06:41:46.015Z,1013.09
2022-10-23T06:42:46.207Z,1013.13
2022-10-23T06:43:46.311Z,1013.12
2022-10-23T06:44:46.463Z,1013.12
2022-10-23T06:45:46.659Z,1013.14
2022-10-23T06:46:46.808Z,1013.20
2022-10-23T06:47:47.023Z,1013.20
2022-10-23T06:48:47.280Z,1013.19
2022-10-23T06:49:47.317Z,1013.22
2022-10-23T06:50:47.516Z,1013.27
2022-10-23T06:51:47.648Z,1013.26
2022-10-23T06:52:48.114Z,1013.28
2022-10-23T06:53:47.970Z,1013.31
2022-10-23T06:54:48.160Z,1013.31
2022-10-23T06:55:50.212Z,1013.31
2022-10-23T06:56:48.444Z,1013.33
2022-10-23T06:57:48.613Z,1013.34
2022-10-23T06:58:48.763Z,1013.33
2022-10-23T06:59:48.955Z,1013.33
2022-10-23T07:00:49.197Z,1013.34
2022-10-23T07:01:49.447Z,1013.37
2022-10-23T07:02:49.417Z,1013.39
2022-10-23T07:03:49.624Z,1013.40
2022-10-23T07:04:49.827Z,1013.35
2022-10-23T07:05:49.920Z,1013.35
2022-10-23T07:06:50.078Z,1013.33
2022-10-23T07:07:50.237Z,1013.34
2022-10-23T07:08:50.400Z,1013.35
2022-10-23T07:09:50.680Z,1013.37
2022-10-23T07:10:50.713Z,1013.36
2022-10-23T07:11:50.867Z,1013.35
2022-10-23T07:12:51.019Z,1013.31
2022-10-23T07:13:51.197Z,1013.30
2022-10-23T07:14:51.381Z,1013.27
2022-10-23T07:15:51.540Z,1013.23
2022-10-23T07:16:51.702Z,1013.25
2022-10-23T07:17:51.837Z,1013.25
2022-10-23T07:18:51.992Z,1013.26
2022-10-23T07:19:52.169Z,1013.26
2022-10-23T07:20:52.306Z,1013.34
2022-10-23T07:21:52.466Z,1013.36
2022-10-23T07:22:52.614Z,1013.40
2022-10-23T07:23:52.782Z,1013.39
2022-10-23T07:24:52.884Z,1013.38
2022-10-23T07:25:53.037Z,1013.45
2022-10-23T07:26:53.297Z,1013.42
2022-10-23T07:27:53.393Z,1013.44
2022-10-23T07:28:53.556Z,1013.40
2022-10-23T07:29:53.723Z,1013.36
2022-10-23T07:30:53.893Z,1013.33
2022-10-23T07:31:54.241Z,1013.34
2022-10-23T07:32:54.252Z,1013.38
2022-10-23T07:33:54.412Z,1013.38
2022-10-23T07:34:54.582Z,1013.39
2022-10-23T07:35:54.740Z,1013.37
2022-10-23T07:36:54.932Z,1013.36
2022-10-23T07:37:55.073Z,1013.36
2022-10-23T07:38:55.281Z,1013.33
2022-10-23T07:39:55.334Z,1013.37
2022-10-23T07:40:55.481Z,1013.36
2022-10-23T07:41:55.716Z,1013.33
2022-10-23T07:42:55.773Z,1013.31
2022-10-23T07:43:55.942Z,1013.32
2022-10-23T07:44:56.062Z,1013.26
2022-10-23T07:45:56.191Z,1013.30
2022-10-23T07:46:56.328Z,1013.25
2022-10-23T07:47:56.480Z,1013.25
2022-10-23T07:48:56.682Z,1013.23
2022-10-23T07:49:56.735Z,1013.27
2022-10-23T07:50:56.883Z,1013.30
2022-10-23T07:51:57.042Z,1013.34
2022-10-23T07:52:57.167Z,1013.34
2022-10-23T07:53:57.337Z,1013.33
2022-10-23T07:54:57.529Z,1013.31
2022-10-23T07:55:57.993Z,1013.30
2022-10-23T07:56:57.724Z,1013.29
2022-10-23T07:57:57.858Z,1013.27
2022-10-23T07:58:58.002Z,1013.34
2022-10-23T07:59:58.168Z,1013.33
2022-10-23T08:00:58.537Z,1013.32
2022-10-23T08:01:58.630Z,1013.33
2022-10-23T08:02:58.655Z,1013.30
2022-10-23T08:03:59.101Z,1013.27
2022-10-23T08:04:58.961Z,1013.25
2022-10-23T08:05:59.143Z,1013.26
2022-10-23T08:06:59.267Z,1013.26
2022-10-23T08:07:59.431Z,1013.27
2022-10-23T08:09:02.234Z,1013.28
2022-10-23T08:09:59.733Z,1013.26
2022-10-23T08:10:59.885Z,1013.22
2022-10-23T08:12:00.105Z,1013.24
2022-10-23T08:13:00.174Z,1013.23
2022-10-23T08:14:00.348Z,1013.21
2022-10-23T08:15:00.565Z,1013.22
2022-10-23T08:16:00.624Z,1013.16
2022-10-23T08:18:00.914Z,1013.18
2022-10-23T08:19:01.092Z,1013.18
2022-10-23T08:20:01.217Z,1013.14
2022-10-23T08:21:01.337Z,1013.14
2022-10-23T08:22:01.480Z,1013.21
2022-10-23T08:23:01.621Z,1013.15
2022-10-23T08:24:01.801Z,1013.16
2022-10-23T08:25:01.929Z,1013.17
2022-10-23T08:26:02.071Z,1013.13
2022-10-23T08:27:02.227Z,1013.17
2022-10-23T08:28:05.541Z,1013.14
2022-10-23T08:29:02.477Z,1013.21
2022-10-23T08:30:02.610Z,1013.19
2022-10-23T08:31:02.720Z,1013.21
2022-10-23T08:32:02.869Z,1013.18
2022-10-23T08:33:02.952Z,1013.24
2022-10-23T08:34:03.079Z,1013.24
2022-10-23T08:35:03.204Z,1013.23
2022-10-23T08:36:03.353Z,1013.22
2022-10-23T08:37:03.573Z,1013.23
2022-10-23T08:38:03.533Z,1013.21
2022-10-23T08:39:03.745Z,1013.22
2022-10-23T08:40:03.732Z,1013.20
2022-10-23T08:41:03.837Z,1013.22
2022-10-23T08:42:04.026Z,1013.23
2022-10-23T08:43:04.055Z,1013.22
2022-10-23T08:44:04.173Z,1013.19
2022-10-23T08:45:04.287Z,1013.18
2022-10-23T08:46:06.169Z,1013.18
2022-10-23T08:47:04.553Z,1013.15
2022-10-23T08:48:04.631Z,1013.15
2022-10-23T08:49:04.736Z,1013.14
2022-10-23T08:50:04.907Z,1013.14
2022-10-23T08:51:05.002Z,1013.13
2022-10-23T08:52:05.529Z,1013.10
2022-10-23T08:53:05.205Z,1013.07
2022-10-23T08:54:05.334Z,1013.02
2022-10-23T08:55:05.488Z,1013.04
2022-10-23T08:56:05.590Z,1013.03
2022-10-23T08:57:05.708Z,1013.02
2022-10-23T08:58:05.801Z,1013.08
2022-10-23T08:59:05.914Z,1013.11
2022-10-23T09:00:06.058Z,1013.13
2022-10-23T09:01:06.271Z,1013.15
2022-10-23T09:02:06.422Z,1013.16
2022-10-23T09:03:06.430Z,1013.16
2022-10-23T09:04:06.490Z,1013.14
2022-10-23T09:05:06.631Z,1013.13
2022-10-23T09:06:06.767Z,1013.08
2022-10-23T09:07:06.969Z,1013.08
2022-10-23T09:08:07.061Z,1013.03
2022-10-23T09:09:07.149Z,1013.03
2022-10-23T09:10:07.246Z,1013.02
2022-10-23T09:11:07.438Z,1012.96
2022-10-23T09:12:07.471Z,1012.98
2022-10-23T09:13:07.576Z,1013.03
2022-10-23T09:14:07.698Z,1013.00
2022-10-23T09:15:07.813Z,1013.04
2022-10-23T09:16:07.934Z,1013.04
2022-10-23T09:17:08.054Z,1013.05
2022-10-23T09:18:08.104Z,1013.06
2022-10-23T09:19:12.004Z,1013.05
2022-10-23T09:20:08.308Z,1013.05
2022-10-23T09:21:08.447Z,1013.06
2022-10-23T09:22:08.518Z,1013.08
2022-10-23T09:23:08.686Z,1013.05
2022-10-23T09:24:08.739Z,1013.07
2022-10-23T09:25:08.854Z,1013.06
2022-10-23T09:26:08.959Z,1013.03
2022-10-23T09:27:09.119Z,1013.00
2022-10-23T09:28:09.266Z,1013.02
2022-10-23T09:29:09.383Z,1012.98
2022-10-23T09:30:09.529Z,1013.01
2022-10-23T09:31:09.670Z,1012.99
2022-10-23T09:32:09.847Z,1013.03
2022-10-23T09:33:09.958Z,1012.97
2022-10-23T09:34:11.770Z,1012.94
2022-10-23T09:35:10.265Z,1012.93
2022-10-23T09:36:10.368Z,1012.97
2022-10-23T09:37:10.500Z,1012.96
2022-10-23T09:38:10.662Z,1012.95
2022-10-23T09:39:10.801Z,1012.98
2022-10-23T09:40:10.901Z,1012.92
2022-10-23T09:41:11.023Z,1012.92
2022-10-23T09:42:11.155Z,1012.94
2022-10-23T09:43:11.270Z,1012.94
2022-10-23T09:44:11.431Z,1012.92
2022-10-23T09:45:11.486Z,1012.93
2022-10-23T09:46:11.598Z,1012.91
2022-10-23T09:47:11.701Z,1012.88
2022-10-23T09:48:11.811Z,1012.89
2022-10-23T09:49:12.066Z,1012.87
2022-10-23T09:50:12.026Z,1012.90
2022-10-23T09:51:12.134Z,1012.85
2022-10-23T09:52:12.233Z,1012.82
2022-10-23T09:53:12.340Z,1012.82
2022-10-23T09:54:12.505Z,1012.83
2022-10-23T09:55:12.577Z,1012.76
2022-10-23T09:56:12.655Z,1012.74
2022-10-23T09:57:12.758Z,1012.74
2022-10-23T09:58:12.864Z,1012.72
2022-10-23T09:59:12.974Z,1012.75
2022-10-23T10:00:13.122Z,1012.74
2022-10-23T10:01:13.279Z,1012.79
2022-10-23T10:02:13.331Z,1012.79
2022-10-23T10:03:13.356Z,1012.80
2022-10-23T10:04:13.458Z,1012.81
2022-10-23T10:05:13.703Z,1012.78
2022-10-23T10:06:13.635Z,1012.75
2022-10-23T10:07:13.726Z,1012.76
2022-10-23T10:08:13.823Z,1012.74
2022-10-23T10:09:13.937Z,1012.72
2022-10-23T10:10:14.044Z,1012.74
2022-10-23T10:11:14.148Z,1012.77
2022-10-23T10:12:14.216Z,1012.72
2022-10-23T10:13:15.013Z,1012.80
2022-10-23T10:14:14.432Z,1012.81
2022-10-23T10:15:14.505Z,1012.79
2022-10-23T10:16:14.622Z,1012.76
2022-10-23T10:17:14.704Z,1012.78
2022-10-23T10:18:14.861Z,1012.77
2022-10-23T10:19:14.947Z,1012.79
2022-10-23T10:20:15.073Z,1012.73
2022-10-23T10:21:15.213Z,1012.74
2022-10-23T10:22:15.304Z,1012.68
2022-10-23T10:23:15.431Z,1012.70
2022-10-23T10:24:15.548Z,1012.68
2022-10-23T10:25:15.673Z,1012.69
2022-10-23T10:26:15.787Z,1012.68
2022-10-23T10:27:15.900Z,1012.62
2022-10-23T10:28:15.961Z,1012.65
2022-10-23T10:29:16.066Z,1012.64
2022-10-23T10:30:16.257Z,1012.64
2022-10-23T10:31:16.356Z,1012.66
2022-10-23T10:32:16.409Z,1012.66
2022-10-23T10:33:16.533Z,1012.69
2022-10-23T10:34:16.665Z,1012.73
2022-10-23T10:35:17.802Z,1012.74
2022-10-23T10:36:16.982Z,1012.70
2022-10-23T10:37:17.040Z,1012.70
2022-10-23T10:38:17.068Z,1012.68
2022-10-23T10:39:17.165Z,1012.69
2022-10-23T10:40:17.287Z,1012.61
2022-10-23T10:41:17.393Z,1012.61
2022-10-23T10:42:17.441Z,1012.56
2022-10-23T10:43:17.543Z,1012.56
2022-10-23T10:44:17.637Z,1012.48
2022-10-23T10:45:17.730Z,1012.52
2022-10-23T10:46:17.882Z,1012.44
2022-10-23T10:47:20.951Z,1012.42
2022-10-23T10:48:18.044Z,1012.40
2022-10-23T10:49:18.144Z,1012.38
2022-10-23T10:50:18.237Z,1012.35
2022-10-23T10:51:18.345Z,1012.33
2022-10-23T10:52:18.475Z,1012.31
2022-10-23T10:53:18.536Z,1012.35
2022-10-23T10:54:18.628Z,1012.32
2022-10-23T10:55:18.713Z,1012.24
2022-10-23T10:56:18.877Z,1012.20
2022-10-23T10:57:18.983Z,1012.22
2022-10-23T10:58:18.995Z,1012.19
2022-10-23T10:59:19.093Z,1012.21
2022-10-23T11:00:19.195Z,1012.20
2022-10-23T11:01:19.492Z,1012.22
2022-10-23T11:02:19.467Z,1012.26
2022-10-23T11:03:19.534Z,1012.21
2022-10-23T11:04:19.614Z,1012.16
2022-10-23T11:05:19.712Z,1012.16
2022-10-23T11:06:19.818Z,1012.10
2022-10-23T11:07:19.924Z,1012.09
2022-10-23T11:08:20.052Z,1012.05
2022-10-23T11:09:21.129Z,1011.93
2022-10-23T11:10:20.288Z,1011.89
2022-10-23T11:11:20.375Z,1011.90
2022-10-23T11:12:20.532Z,1011.87
2022-10-23T11:13:20.610Z,1011.85
2022-10-23T11:14:20.805Z,1011.82
2022-10-23T11:15:20.880Z,1011.84
2022-10-23T11:16:20.965Z,1011.82
2022-10-23T11:17:21.087Z,1011.77
2022-10-23T11:18:21.218Z,1011.76
2022-10-23T11:19:21.313Z,1011.67
2022-10-23T11:20:21.372Z,1011.71
2022-10-23T11:21:21.466Z,1011.75
2022-10-23T11:22:21.565Z,1011.71
2022-10-23T11:23:21.660Z,1011.70
2022-10-23T11:24:21.823Z,1011.70
2022-10-23T11:25:21.869Z,1011.70
2022-10-23T11:26:21.962Z,1011.68
2022-10-23T11:27:22.070Z,1011.71
2022-10-23T11:28:22.188Z,1011.70
2022-10-23T11:29:22.287Z,1011.63
2022-10-23T11:30:22.352Z,1011.60
2022-10-23T11:31:22.471Z,1011.56
2022-10-23T11:32:22.692Z,1011.55
2022-10-23T11:33:22.665Z,1011.53
2022-10-23T11:34:22.797Z,1011.54
2022-10-23T11:35:22.863Z,1011.54
2022-10-23T11:36:23.017Z,1011.51
2022-10-23T11:37:23.092Z,1011.49
2022-10-23T11:38:23.205Z,1011.48
2022-10-23T11:39:23.320Z,1011.37
2022-10-23T11:40:23.615Z,1011.39
2022-10-23T11:41:26.498Z,1011.37
2022-10-23T11:42:23.669Z,1011.37
2022-10-23T11:43:23.781Z,1011.31
2022-10-23T11:44:23.934Z,1011.30
2022-10-23T11:45:23.982Z,1011.29
2022-10-23T11:46:24.244Z,1011.29
2022-10-23T11:47:24.176Z,1011.28
2022-10-23T11:48:24.272Z,1011.27
2022-10-23T11:49:24.371Z,1011.21
2022-10-23T11:50:24.471Z,1011.20
2022-10-23T11:51:24.588Z,1011.21
2022-10-23T11:52:24.662Z,1011.21
2022-10-23T11:53:24.759Z,1011.17
2022-10-23T11:54:25.018Z,1011.22
2022-10-23T11:55:24.961Z,1011.17
2022-10-23T11:56:25.092Z,1011.13
2022-10-23T11:57:25.189Z,1011.16
2022-10-23T11:58:25.254Z,1011.18
2022-10-23T11:59:25.389Z,1011.15
2022-10-23T12:00:25.485Z,1011.08
2022-10-23T12:01:25.625Z,1011.09
2022-10-23T12:02:25.783Z,1011.01
2022-10-23T12:03:25.801Z,1011.03
2022-10-23T12:04:25.961Z,1011.00
2022-10-23T12:05:26.010Z,1011.02
2022-10-23T12:06:26.107Z,1011.01
2022-10-23T12:07:26.205Z,1011.02
2022-10-23T12:08:26.312Z,1011.01
2022-10-23T12:09:26.445Z,1011.00